sensor_id;sensor_type;location;lat;lon;timestamp;P1;durP1;ratioP1;P2;durP2;ratioP2
63018;SDS011;49105;46.046;10.760;2024-02-14T00:00:57;2.55;;;2.50;;
63018;SDS011;49105;46.046;10.760;2024-02-14T00:03:23;2.70;;;2.60;;
63018;SDS011;49105;46.046;10.760;2024-02-14T00:05:49;3.03;;;2.92;;
63018;SDS011;49105;46.046;10.760;2024-02-14T00:08:14;2.00;;;2.00;;
63018;SDS011;49105;46.046;10.760;2024-02-14T00:10:40;2.42;;;2.33;;
63018;SDS011;49105;46.046;10.760;2024-02-14T00:13:09;3.33;;;3.17;;
63018;SDS011;49105;46.046;10.760;2024-02-14T00:15:36;2.78;;;2.67;;
63018;SDS011;49105;46.046;10.760;2024-02-14T00:18:02;2.20;;;2.20;;
63018;SDS011;49105;46.046;10.760;2024-02-14T00:20:28;3.55;;;3.42;;
63018;SDS011;49105;46.046;10.760;2024-02-14T00:22:54;3.00;;;2.90;;
63018;SDS011;49105;46.046;10.760;2024-02-14T00:25:20;2.42;;;2.42;;
63018;SDS011;49105;46.046;10.760;2024-02-14T00:27:45;2.65;;;2.58;;
63018;SDS011;49105;46.046;10.760;2024-02-14T00:30:11;3.03;;;2.92;;
63018;SDS011;49105;46.046;10.760;2024-02-14T00:32:38;2.50;;;2.50;;
63018;SDS011;49105;46.046;10.760;2024-02-14T00:35:04;2.47;;;2.47;;
63018;SDS011;49105;46.046;10.760;2024-02-14T00:37:30;2.30;;;2.30;;
63018;SDS011;49105;46.046;10.760;2024-02-14T00:39:58;2.60;;;2.50;;
63018;SDS011;49105;46.046;10.760;2024-02-14T00:42:24;2.72;;;2.63;;
63018;SDS011;49105;46.046;10.760;2024-02-14T00:44:50;2.72;;;2.63;;
63018;SDS011;49105;46.046;10.760;2024-02-14T00:47:15;2.85;;;2.75;;
63018;SDS011;49105;46.046;10.760;2024-02-14T00:49:42;2.97;;;2.88;;
63018;SDS011;49105;46.046;10.760;2024-02-14T00:52:08;3.20;;;3.10;;
63018;SDS011;49105;46.046;10.760;2024-02-14T00:54:35;3.22;;;3.13;;
63018;SDS011;49105;46.046;10.760;2024-02-14T00:57:02;2.83;;;2.72;;
63018;SDS011;49105;46.046;10.760;2024-02-14T00:59:28;2.78;;;2.67;;
63018;SDS011;49105;46.046;10.760;2024-02-14T01:01:54;2.35;;;2.35;;
63018;SDS011;49105;46.046;10.760;2024-02-14T01:04:20;2.42;;;2.42;;
63018;SDS011;49105;46.046;10.760;2024-02-14T01:06:45;2.40;;;2.40;;
63018;SDS011;49105;46.046;10.760;2024-02-14T01:09:13;2.80;;;2.70;;
63018;SDS011;49105;46.046;10.760;2024-02-14T01:11:39;3.10;;;3.00;;
63018;SDS011;49105;46.046;10.760;2024-02-14T01:14:05;2.58;;;2.58;;
63018;SDS011;49105;46.046;10.760;2024-02-14T01:16:31;2.30;;;2.30;;
63018;SDS011;49105;46.046;10.760;2024-02-14T01:18:57;2.38;;;2.38;;
63018;SDS011;49105;46.046;10.760;2024-02-14T01:21:22;5.75;;;2.58;;
63018;SDS011;49105;46.046;10.760;2024-02-14T01:23:48;3.22;;;3.13;;
63018;SDS011;49105;46.046;10.760;2024-02-14T01:26:15;2.30;;;2.30;;
63018;SDS011;49105;46.046;10.760;2024-02-14T01:28:41;3.60;;;3.30;;
63018;SDS011;49105;46.046;10.760;2024-02-14T01:31:09;3.05;;;2.95;;
63018;SDS011;49105;46.046;10.760;2024-02-14T01:33:36;3.40;;;3.30;;
63018;SDS011;49105;46.046;10.760;2024-02-14T01:36:01;2.85;;;2.75;;
63018;SDS011;49105;46.046;10.760;2024-02-14T01:38:27;3.67;;;3.53;;
63018;SDS011;49105;46.046;10.760;2024-02-14T01:40:54;3.10;;;3.00;;
63018;SDS011;49105;46.046;10.760;2024-02-14T01:43:20;2.83;;;2.75;;
63018;SDS011;49105;46.046;10.760;2024-02-14T01:45:46;2.92;;;2.83;;
63018;SDS011;49105;46.046;10.760;2024-02-14T01:48:12;3.40;;;3.30;;
63018;SDS011;49105;46.046;10.760;2024-02-14T01:50:43;2.50;;;2.50;;
63018;SDS011;49105;46.046;10.760;2024-02-14T01:53:09;3.00;;;2.90;;
63018;SDS011;49105;46.046;10.760;2024-02-14T01:55:35;2.80;;;2.70;;
63018;SDS011;49105;46.046;10.760;2024-02-14T01:58:01;3.00;;;2.90;;
63018;SDS011;49105;46.046;10.760;2024-02-14T02:00:29;3.83;;;3.70;;
63018;SDS011;49105;46.046;10.760;2024-02-14T02:02:56;2.85;;;2.75;;
63018;SDS011;49105;46.046;10.760;2024-02-14T02:05:23;3.55;;;3.45;;
63018;SDS011;49105;46.046;10.760;2024-02-14T02:07:49;3.13;;;2.92;;
63018;SDS011;49105;46.046;10.760;2024-02-14T02:10:15;2.60;;;2.60;;
63018;SDS011;49105;46.046;10.760;2024-02-14T02:12:41;3.63;;;3.42;;
63018;SDS011;49105;46.046;10.760;2024-02-14T02:15:07;3.10;;;3.00;;
63018;SDS011;49105;46.046;10.760;2024-02-14T02:17:37;2.95;;;2.85;;
63018;SDS011;49105;46.046;10.760;2024-02-14T02:20:04;3.55;;;3.45;;
63018;SDS011;49105;46.046;10.760;2024-02-14T02:22:32;4.40;;;4.28;;
63018;SDS011;49105;46.046;10.760;2024-02-14T02:25:00;5.43;;;3.25;;
63018;SDS011;49105;46.046;10.760;2024-02-14T02:27:33;3.78;;;3.58;;
63018;SDS011;49105;46.046;10.760;2024-02-14T02:30:02;2.80;;;2.70;;
63018;SDS011;49105;46.046;10.760;2024-02-14T02:32:30;3.20;;;3.10;;
63018;SDS011;49105;46.046;10.760;2024-02-14T02:34:56;3.40;;;3.30;;
63018;SDS011;49105;46.046;10.760;2024-02-14T02:37:22;3.70;;;3.60;;
63018;SDS011;49105;46.046;10.760;2024-02-14T02:39:47;2.90;;;2.80;;
63018;SDS011;49105;46.046;10.760;2024-02-14T02:42:14;3.00;;;2.90;;
63018;SDS011;49105;46.046;10.760;2024-02-14T02:44:42;3.00;;;2.90;;
63018;SDS011;49105;46.046;10.760;2024-02-14T02:47:08;3.10;;;3.00;;
63018;SDS011;49105;46.046;10.760;2024-02-14T02:49:36;3.05;;;2.92;;
63018;SDS011;49105;46.046;10.760;2024-02-14T02:52:02;3.00;;;2.90;;
63018;SDS011;49105;46.046;10.760;2024-02-14T02:54:29;3.00;;;2.90;;
63018;SDS011;49105;46.046;10.760;2024-02-14T02:56:56;3.40;;;3.30;;
63018;SDS011;49105;46.046;10.760;2024-02-14T02:59:21;2.53;;;2.53;;
63018;SDS011;49105;46.046;10.760;2024-02-14T03:01:47;3.10;;;2.90;;
63018;SDS011;49105;46.046;10.760;2024-02-14T03:04:14;2.40;;;2.40;;
63018;SDS011;49105;46.046;10.760;2024-02-14T03:06:41;2.33;;;2.33;;
63018;SDS011;49105;46.046;10.760;2024-02-14T03:09:08;3.05;;;2.95;;
63018;SDS011;49105;46.046;10.760;2024-02-14T03:11:34;2.72;;;2.67;;
63018;SDS011;49105;46.046;10.760;2024-02-14T03:14:02;3.03;;;2.92;;
63018;SDS011;49105;46.046;10.760;2024-02-14T03:16:28;3.58;;;3.47;;
63018;SDS011;49105;46.046;10.760;2024-02-14T03:18:54;2.70;;;2.60;;
63018;SDS011;49105;46.046;10.760;2024-02-14T03:21:20;2.53;;;2.53;;
63018;SDS011;49105;46.046;10.760;2024-02-14T03:23:47;2.75;;;2.67;;
63018;SDS011;49105;46.046;10.760;2024-02-14T03:26:13;3.50;;;3.22;;
63018;SDS011;49105;46.046;10.760;2024-02-14T03:28:40;3.30;;;3.20;;
63018;SDS011;49105;46.046;10.760;2024-02-14T03:31:06;3.28;;;3.17;;
63018;SDS011;49105;46.046;10.760;2024-02-14T03:33:33;2.75;;;2.65;;
63018;SDS011;49105;46.046;10.760;2024-02-14T03:35:59;2.90;;;2.80;;
63018;SDS011;49105;46.046;10.760;2024-02-14T03:38:29;2.75;;;2.67;;
63018;SDS011;49105;46.046;10.760;2024-02-14T03:40:56;2.20;;;2.20;;
63018;SDS011;49105;46.046;10.760;2024-02-14T03:43:22;3.00;;;2.90;;
63018;SDS011;49105;46.046;10.760;2024-02-14T03:45:49;2.80;;;2.70;;
63018;SDS011;49105;46.046;10.760;2024-02-14T03:48:15;3.10;;;2.90;;
63018;SDS011;49105;46.046;10.760;2024-02-14T03:50:42;3.10;;;3.00;;
63018;SDS011;49105;46.046;10.760;2024-02-14T03:53:08;3.50;;;2.97;;
63018;SDS011;49105;46.046;10.760;2024-02-14T03:55:36;3.10;;;3.00;;
63018;SDS011;49105;46.046;10.760;2024-02-14T03:58:02;2.60;;;2.55;;
63018;SDS011;49105;46.046;10.760;2024-02-14T04:00:29;3.38;;;3.17;;
63018;SDS011;49105;46.046;10.760;2024-02-14T04:02:55;3.10;;;3.00;;
63018;SDS011;49105;46.046;10.760;2024-02-14T04:05:24;3.40;;;3.30;;
63018;SDS011;49105;46.046;10.760;2024-02-14T04:07:55;2.92;;;2.83;;
63018;SDS011;49105;46.046;10.760;2024-02-14T04:10:21;2.90;;;2.80;;
63018;SDS011;49105;46.046;10.760;2024-02-14T04:12:47;2.90;;;2.85;;
63018;SDS011;49105;46.046;10.760;2024-02-14T04:15:13;5.03;;;3.60;;
63018;SDS011;49105;46.046;10.760;2024-02-14T04:17:41;2.60;;;2.60;;
63018;SDS011;49105;46.046;10.760;2024-02-14T04:20:07;4.13;;;3.97;;
63018;SDS011;49105;46.046;10.760;2024-02-14T04:22:34;9.00;;;3.45;;
63018;SDS011;49105;46.046;10.760;2024-02-14T04:25:00;3.17;;;3.08;;
63018;SDS011;49105;46.046;10.760;2024-02-14T04:27:27;3.22;;;3.13;;
63018;SDS011;49105;46.046;10.760;2024-02-14T04:29:53;2.90;;;2.80;;
63018;SDS011;49105;46.046;10.760;2024-02-14T04:32:18;4.13;;;3.92;;
63018;SDS011;49105;46.046;10.760;2024-02-14T04:34:44;3.13;;;3.03;;
63018;SDS011;49105;46.046;10.760;2024-02-14T04:37:11;3.67;;;3.58;;
63018;SDS011;49105;46.046;10.760;2024-02-14T04:39:39;3.35;;;3.25;;
63018;SDS011;49105;46.046;10.760;2024-02-14T04:42:05;3.72;;;3.63;;
63018;SDS011;49105;46.046;10.760;2024-02-14T04:44:31;2.80;;;2.70;;
63018;SDS011;49105;46.046;10.760;2024-02-14T04:46:57;2.60;;;2.50;;
63018;SDS011;49105;46.046;10.760;2024-02-14T04:49:26;2.88;;;2.78;;
63018;SDS011;49105;46.046;10.760;2024-02-14T04:51:52;6.22;;;3.83;;
63018;SDS011;49105;46.046;10.760;2024-02-14T04:54:18;3.00;;;2.90;;
63018;SDS011;49105;46.046;10.760;2024-02-14T04:56:43;2.90;;;2.80;;
63018;SDS011;49105;46.046;10.760;2024-02-14T04:59:10;2.80;;;2.70;;
63018;SDS011;49105;46.046;10.760;2024-02-14T05:01:36;3.00;;;2.90;;
63018;SDS011;49105;46.046;10.760;2024-02-14T05:04:02;2.78;;;2.70;;
63018;SDS011;49105;46.046;10.760;2024-02-14T05:06:29;3.15;;;2.95;;
63018;SDS011;49105;46.046;10.760;2024-02-14T05:08:55;2.40;;;2.40;;
63018;SDS011;49105;46.046;10.760;2024-02-14T05:11:21;2.38;;;2.38;;
63018;SDS011;49105;46.046;10.760;2024-02-14T05:13:47;2.20;;;2.20;;
63018;SDS011;49105;46.046;10.760;2024-02-14T05:16:13;2.72;;;2.70;;
63018;SDS011;49105;46.046;10.760;2024-02-14T05:18:43;2.63;;;2.60;;
63018;SDS011;49105;46.046;10.760;2024-02-14T05:21:09;3.03;;;2.92;;
63018;SDS011;49105;46.046;10.760;2024-02-14T05:23:36;2.80;;;2.70;;
63018;SDS011;49105;46.046;10.760;2024-02-14T05:26:02;2.63;;;2.60;;
63018;SDS011;49105;46.046;10.760;2024-02-14T05:28:28;2.40;;;2.40;;
63018;SDS011;49105;46.046;10.760;2024-02-14T05:30:55;3.30;;;3.20;;
63018;SDS011;49105;46.046;10.760;2024-02-14T05:33:22;2.60;;;2.50;;
63018;SDS011;49105;46.046;10.760;2024-02-14T05:35:51;2.90;;;2.80;;
63018;SDS011;49105;46.046;10.760;2024-02-14T05:38:17;2.65;;;2.55;;
63018;SDS011;49105;46.046;10.760;2024-02-14T05:40:46;2.47;;;2.38;;
63018;SDS011;49105;46.046;10.760;2024-02-14T05:43:13;4.05;;;3.95;;
63018;SDS011;49105;46.046;10.760;2024-02-14T05:45:38;3.08;;;2.97;;
63018;SDS011;49105;46.046;10.760;2024-02-14T05:48:04;2.88;;;2.78;;
63018;SDS011;49105;46.046;10.760;2024-02-14T05:50:31;3.17;;;3.08;;
63018;SDS011;49105;46.046;10.760;2024-02-14T05:52:57;19.50;;;3.83;;
63018;SDS011;49105;46.046;10.760;2024-02-14T05:55:23;2.88;;;2.78;;
63018;SDS011;49105;46.046;10.760;2024-02-14T05:57:52;3.00;;;2.90;;
63018;SDS011;49105;46.046;10.760;2024-02-14T06:00:18;3.10;;;3.00;;
63018;SDS011;49105;46.046;10.760;2024-02-14T06:02:45;6.78;;;3.83;;
63018;SDS011;49105;46.046;10.760;2024-02-14T06:05:12;3.30;;;3.20;;
63018;SDS011;49105;46.046;10.760;2024-02-14T06:07:39;3.10;;;3.00;;
63018;SDS011;49105;46.046;10.760;2024-02-14T06:10:06;3.38;;;3.28;;
63018;SDS011;49105;46.046;10.760;2024-02-14T06:12:32;2.65;;;2.60;;
63018;SDS011;49105;46.046;10.760;2024-02-14T06:14:59;3.22;;;3.13;;
63018;SDS011;49105;46.046;10.760;2024-02-14T06:17:25;3.30;;;3.20;;
63018;SDS011;49105;46.046;10.760;2024-02-14T06:19:53;4.68;;;4.22;;
63018;SDS011;49105;46.046;10.760;2024-02-14T06:22:19;2.80;;;2.70;;
63018;SDS011;49105;46.046;10.760;2024-02-14T06:24:45;3.00;;;2.90;;
63018;SDS011;49105;46.046;10.760;2024-02-14T06:27:13;4.38;;;4.18;;
63018;SDS011;49105;46.046;10.760;2024-02-14T06:29:41;6.80;;;6.40;;
63018;SDS011;49105;46.046;10.760;2024-02-14T06:32:13;3.22;;;3.13;;
63018;SDS011;49105;46.046;10.760;2024-02-14T06:34:39;5.88;;;5.53;;
63018;SDS011;49105;46.046;10.760;2024-02-14T06:37:04;2.97;;;2.88;;
63018;SDS011;49105;46.046;10.760;2024-02-14T06:39:30;3.83;;;3.72;;
63018;SDS011;49105;46.046;10.760;2024-02-14T06:41:56;3.38;;;3.28;;
63018;SDS011;49105;46.046;10.760;2024-02-14T06:44:25;5.68;;;4.10;;
63018;SDS011;49105;46.046;10.760;2024-02-14T06:46:51;4.70;;;4.35;;
63018;SDS011;49105;46.046;10.760;2024-02-14T06:49:17;17.15;;;9.15;;
63018;SDS011;49105;46.046;10.760;2024-02-14T06:51:43;8.13;;;7.38;;
63018;SDS011;49105;46.046;10.760;2024-02-14T06:54:10;3.50;;;3.40;;
63018;SDS011;49105;46.046;10.760;2024-02-14T06:56:36;5.18;;;4.93;;
63018;SDS011;49105;46.046;10.760;2024-02-14T06:59:02;3.42;;;3.33;;
63018;SDS011;49105;46.046;10.760;2024-02-14T07:01:28;3.25;;;3.15;;
63018;SDS011;49105;46.046;10.760;2024-02-14T07:03:54;3.20;;;3.10;;
63018;SDS011;49105;46.046;10.760;2024-02-14T07:06:20;2.40;;;2.35;;
63018;SDS011;49105;46.046;10.760;2024-02-14T07:08:46;2.88;;;2.78;;
63018;SDS011;49105;46.046;10.760;2024-02-14T07:11:12;3.92;;;3.70;;
63018;SDS011;49105;46.046;10.760;2024-02-14T07:13:38;4.97;;;4.68;;
63018;SDS011;49105;46.046;10.760;2024-02-14T07:16:04;6.05;;;5.60;;
63018;SDS011;49105;46.046;10.760;2024-02-14T07:18:30;2.50;;;2.50;;
63018;SDS011;49105;46.046;10.760;2024-02-14T07:20:56;2.95;;;2.85;;
63018;SDS011;49105;46.046;10.760;2024-02-14T07:23:22;3.28;;;3.17;;
63018;SDS011;49105;46.046;10.760;2024-02-14T07:25:48;3.72;;;3.63;;
63018;SDS011;49105;46.046;10.760;2024-02-14T07:28:15;3.20;;;3.10;;
63018;SDS011;49105;46.046;10.760;2024-02-14T07:30:40;7.32;;;6.65;;
63018;SDS011;49105;46.046;10.760;2024-02-14T07:33:06;4.18;;;4.03;;
63018;SDS011;49105;46.046;10.760;2024-02-14T07:35:32;4.07;;;3.90;;
63018;SDS011;49105;46.046;10.760;2024-02-14T07:37:59;3.78;;;3.60;;
63018;SDS011;49105;46.046;10.760;2024-02-14T07:40:25;3.35;;;3.25;;
63018;SDS011;49105;46.046;10.760;2024-02-14T07:42:52;3.30;;;3.20;;
63018;SDS011;49105;46.046;10.760;2024-02-14T07:45:18;3.47;;;3.38;;
63018;SDS011;49105;46.046;10.760;2024-02-14T07:47:44;4.15;;;3.80;;
63018;SDS011;49105;46.046;10.760;2024-02-14T07:50:10;3.20;;;3.10;;
63018;SDS011;49105;46.046;10.760;2024-02-14T07:52:36;3.20;;;3.10;;
63018;SDS011;49105;46.046;10.760;2024-02-14T07:55:03;5.22;;;4.80;;
63018;SDS011;49105;46.046;10.760;2024-02-14T07:57:29;3.90;;;3.72;;
63018;SDS011;49105;46.046;10.760;2024-02-14T07:59:55;3.35;;;3.25;;
63018;SDS011;49105;46.046;10.760;2024-02-14T08:02:21;4.72;;;4.53;;
63018;SDS011;49105;46.046;10.760;2024-02-14T08:04:46;3.50;;;3.40;;
63018;SDS011;49105;46.046;10.760;2024-02-14T08:07:12;4.47;;;4.28;;
63018;SDS011;49105;46.046;10.760;2024-02-14T08:09:38;3.90;;;3.72;;
63018;SDS011;49105;46.046;10.760;2024-02-14T08:12:04;4.88;;;4.57;;
63018;SDS011;49105;46.046;10.760;2024-02-14T08:14:31;3.65;;;3.53;;
63018;SDS011;49105;46.046;10.760;2024-02-14T08:16:57;4.70;;;4.50;;
63018;SDS011;49105;46.046;10.760;2024-02-14T08:19:23;5.47;;;5.05;;
63018;SDS011;49105;46.046;10.760;2024-02-14T08:21:49;4.13;;;3.83;;
63018;SDS011;49105;46.046;10.760;2024-02-14T08:24:14;5.40;;;3.72;;
63018;SDS011;49105;46.046;10.760;2024-02-14T08:26:40;3.28;;;3.17;;
63018;SDS011;49105;46.046;10.760;2024-02-14T08:29:06;3.70;;;3.50;;
63018;SDS011;49105;46.046;10.760;2024-02-14T08:31:35;8.27;;;6.13;;
63018;SDS011;49105;46.046;10.760;2024-02-14T08:34:01;3.53;;;3.42;;
63018;SDS011;49105;46.046;10.760;2024-02-14T08:36:26;3.50;;;3.40;;
63018;SDS011;49105;46.046;10.760;2024-02-14T08:38:52;5.15;;;4.72;;
63018;SDS011;49105;46.046;10.760;2024-02-14T08:41:18;4.05;;;3.92;;
63018;SDS011;49105;46.046;10.760;2024-02-14T08:43:44;3.85;;;3.72;;
63018;SDS011;49105;46.046;10.760;2024-02-14T08:46:10;4.18;;;3.97;;
63018;SDS011;49105;46.046;10.760;2024-02-14T08:48:38;5.25;;;4.82;;
63018;SDS011;49105;46.046;10.760;2024-02-14T08:51:10;4.10;;;4.00;;
63018;SDS011;49105;46.046;10.760;2024-02-14T08:53:37;4.25;;;4.05;;
63018;SDS011;49105;46.046;10.760;2024-02-14T08:56:02;3.17;;;3.08;;
63018;SDS011;49105;46.046;10.760;2024-02-14T08:58:29;5.72;;;5.43;;
63018;SDS011;49105;46.046;10.760;2024-02-14T09:00:55;6.18;;;5.68;;
63018;SDS011;49105;46.046;10.760;2024-02-14T09:03:21;3.80;;;3.70;;
63018;SDS011;49105;46.046;10.760;2024-02-14T09:05:48;4.25;;;4.05;;
63018;SDS011;49105;46.046;10.760;2024-02-14T09:08:14;7.03;;;6.38;;
63018;SDS011;49105;46.046;10.760;2024-02-14T09:10:40;4.38;;;4.18;;
63018;SDS011;49105;46.046;10.760;2024-02-14T09:13:06;2.53;;;2.42;;
63018;SDS011;49105;46.046;10.760;2024-02-14T09:15:32;2.38;;;2.38;;
63018;SDS011;49105;46.046;10.760;2024-02-14T09:17:58;11.68;;;3.83;;
63018;SDS011;49105;46.046;10.760;2024-02-14T09:20:25;2.88;;;2.78;;
63018;SDS011;49105;46.046;10.760;2024-02-14T09:22:51;3.45;;;3.33;;
63018;SDS011;49105;46.046;10.760;2024-02-14T09:25:18;3.30;;;3.20;;
63018;SDS011;49105;46.046;10.760;2024-02-14T09:27:44;3.55;;;3.42;;
63018;SDS011;49105;46.046;10.760;2024-02-14T09:30:12;3.00;;;2.90;;
63018;SDS011;49105;46.046;10.760;2024-02-14T09:32:38;2.92;;;2.83;;
63018;SDS011;49105;46.046;10.760;2024-02-14T09:35:04;2.55;;;2.50;;
63018;SDS011;49105;46.046;10.760;2024-02-14T09:37:32;4.22;;;3.90;;
63018;SDS011;49105;46.046;10.760;2024-02-14T09:39:58;10.65;;;3.53;;
63018;SDS011;49105;46.046;10.760;2024-02-14T09:42:58;2.70;;;2.60;;
63018;SDS011;49105;46.046;10.760;2024-02-14T09:45:21;4.93;;;4.60;;
63018;SDS011;49105;46.046;10.760;2024-02-14T09:47:49;2.70;;;2.60;;
63018;SDS011;49105;46.046;10.760;2024-02-14T09:50:16;2.10;;;2.10;;
63018;SDS011;49105;46.046;10.760;2024-02-14T09:52:42;2.92;;;2.70;;
63018;SDS011;49105;46.046;10.760;2024-02-14T09:55:10;2.28;;;2.28;;
63018;SDS011;49105;46.046;10.760;2024-02-14T09:57:37;2.33;;;2.33;;
63018;SDS011;49105;46.046;10.760;2024-02-14T10:00:07;2.25;;;2.25;;
63018;SDS011;49105;46.046;10.760;2024-02-14T10:02:35;2.20;;;2.20;;
63018;SDS011;49105;46.046;10.760;2024-02-14T10:05:01;2.10;;;2.10;;
63018;SDS011;49105;46.046;10.760;2024-02-14T10:07:26;2.35;;;2.35;;
63018;SDS011;49105;46.046;10.760;2024-02-14T10:09:52;2.53;;;2.42;;
63018;SDS011;49105;46.046;10.760;2024-02-14T10:12:19;3.10;;;2.92;;
63018;SDS011;49105;46.046;10.760;2024-02-14T10:14:45;2.45;;;2.45;;
63018;SDS011;49105;46.046;10.760;2024-02-14T10:17:20;2.95;;;2.75;;
63018;SDS011;49105;46.046;10.760;2024-02-14T10:19:58;1.90;;;1.90;;
63018;SDS011;49105;46.046;10.760;2024-02-14T10:22:25;1.73;;;1.73;;
63018;SDS011;49105;46.046;10.760;2024-02-14T10:24:57;1.70;;;1.70;;
63018;SDS011;49105;46.046;10.760;2024-02-14T10:27:23;2.00;;;2.00;;
63018;SDS011;49105;46.046;10.760;2024-02-14T10:29:51;1.80;;;1.80;;
63018;SDS011;49105;46.046;10.760;2024-02-14T10:32:16;2.00;;;2.00;;
63018;SDS011;49105;46.046;10.760;2024-02-14T10:34:43;2.00;;;2.00;;
63018;SDS011;49105;46.046;10.760;2024-02-14T10:37:11;1.85;;;1.85;;
63018;SDS011;49105;46.046;10.760;2024-02-14T10:39:40;1.90;;;1.90;;
63018;SDS011;49105;46.046;10.760;2024-02-14T10:42:06;2.20;;;2.20;;
63018;SDS011;49105;46.046;10.760;2024-02-14T10:44:34;2.00;;;2.00;;
63018;SDS011;49105;46.046;10.760;2024-02-14T10:47:00;1.90;;;1.90;;
63018;SDS011;49105;46.046;10.760;2024-02-14T10:49:32;2.05;;;2.05;;
63018;SDS011;49105;46.046;10.760;2024-02-14T10:52:01;1.77;;;1.77;;
63018;SDS011;49105;46.046;10.760;2024-02-14T10:54:33;1.80;;;1.80;;
63018;SDS011;49105;46.046;10.760;2024-02-14T10:57:04;1.92;;;1.92;;
63018;SDS011;49105;46.046;10.760;2024-02-14T10:59:38;2.08;;;2.08;;
63018;SDS011;49105;46.046;10.760;2024-02-14T11:02:09;1.92;;;1.92;;
63018;SDS011;49105;46.046;10.760;2024-02-14T11:04:35;1.80;;;1.80;;
63018;SDS011;49105;46.046;10.760;2024-02-14T11:07:02;1.67;;;1.67;;
63018;SDS011;49105;46.046;10.760;2024-02-14T11:09:32;1.95;;;1.95;;
63018;SDS011;49105;46.046;10.760;2024-02-14T11:12:00;1.98;;;1.98;;
63018;SDS011;49105;46.046;10.760;2024-02-14T11:14:29;1.77;;;1.77;;
63018;SDS011;49105;46.046;10.760;2024-02-14T11:16:57;1.75;;;1.75;;
63018;SDS011;49105;46.046;10.760;2024-02-14T11:19:30;1.70;;;1.70;;
63018;SDS011;49105;46.046;10.760;2024-02-14T11:22:19;1.80;;;1.80;;
63018;SDS011;49105;46.046;10.760;2024-02-14T11:24:46;2.20;;;2.10;;
63018;SDS011;49105;46.046;10.760;2024-02-14T11:27:13;2.00;;;2.00;;
63018;SDS011;49105;46.046;10.760;2024-02-14T11:29:40;1.83;;;1.83;;
63018;SDS011;49105;46.046;10.760;2024-02-14T11:32:10;1.92;;;1.92;;
63018;SDS011;49105;46.046;10.760;2024-02-14T11:34:36;2.47;;;2.38;;
63018;SDS011;49105;46.046;10.760;2024-02-14T11:37:02;1.98;;;1.98;;
63018;SDS011;49105;46.046;10.760;2024-02-14T11:39:29;1.77;;;1.77;;
63018;SDS011;49105;46.046;10.760;2024-02-14T11:41:58;1.73;;;1.73;;
63018;SDS011;49105;46.046;10.760;2024-02-14T11:44:24;2.17;;;2.13;;
63018;SDS011;49105;46.046;10.760;2024-02-14T11:46:51;1.70;;;1.70;;
63018;SDS011;49105;46.046;10.760;2024-02-14T11:49:16;1.73;;;1.73;;
63018;SDS011;49105;46.046;10.760;2024-02-14T11:51:43;1.75;;;1.75;;
63018;SDS011;49105;46.046;10.760;2024-02-14T11:54:09;2.05;;;2.05;;
63018;SDS011;49105;46.046;10.760;2024-02-14T11:56:36;1.80;;;1.80;;
63018;SDS011;49105;46.046;10.760;2024-02-14T11:59:04;1.80;;;1.80;;
63018;SDS011;49105;46.046;10.760;2024-02-14T12:01:30;2.00;;;2.00;;
63018;SDS011;49105;46.046;10.760;2024-02-14T12:03:58;1.80;;;1.80;;
63018;SDS011;49105;46.046;10.760;2024-02-14T12:06:26;1.80;;;1.80;;
63018;SDS011;49105;46.046;10.760;2024-02-14T12:08:53;1.90;;;1.90;;
63018;SDS011;49105;46.046;10.760;2024-02-14T12:11:20;1.70;;;1.70;;
63018;SDS011;49105;46.046;10.760;2024-02-14T12:13:49;1.80;;;1.80;;
63018;SDS011;49105;46.046;10.760;2024-02-14T12:16:15;2.10;;;2.10;;
63018;SDS011;49105;46.046;10.760;2024-02-14T12:18:41;1.80;;;1.80;;
63018;SDS011;49105;46.046;10.760;2024-02-14T12:21:08;2.10;;;2.10;;
63018;SDS011;49105;46.046;10.760;2024-02-14T12:23:34;2.08;;;2.08;;
63018;SDS011;49105;46.046;10.760;2024-02-14T12:26:03;1.92;;;1.83;;
63018;SDS011;49105;46.046;10.760;2024-02-14T12:28:30;1.80;;;1.80;;
63018;SDS011;49105;46.046;10.760;2024-02-14T12:30:56;1.75;;;1.70;;
63018;SDS011;49105;46.046;10.760;2024-02-14T12:33:23;1.73;;;1.73;;
63018;SDS011;49105;46.046;10.760;2024-02-14T12:35:50;2.00;;;2.00;;
63018;SDS011;49105;46.046;10.760;2024-02-14T12:38:18;2.50;;;2.40;;
63018;SDS011;49105;46.046;10.760;2024-02-14T12:40:44;2.08;;;2.08;;
63018;SDS011;49105;46.046;10.760;2024-02-14T12:43:11;2.30;;;2.30;;
63018;SDS011;49105;46.046;10.760;2024-02-14T12:45:38;1.90;;;1.90;;
63018;SDS011;49105;46.046;10.760;2024-02-14T12:48:07;1.92;;;1.92;;
63018;SDS011;49105;46.046;10.760;2024-02-14T12:50:34;1.90;;;1.90;;
63018;SDS011;49105;46.046;10.760;2024-02-14T12:53:01;1.95;;;1.95;;
63018;SDS011;49105;46.046;10.760;2024-02-14T12:55:27;2.33;;;2.25;;
63018;SDS011;49105;46.046;10.760;2024-02-14T12:57:54;1.90;;;1.90;;
63018;SDS011;49105;46.046;10.760;2024-02-14T13:00:21;2.17;;;2.17;;
63018;SDS011;49105;46.046;10.760;2024-02-14T13:02:47;1.90;;;1.90;;
63018;SDS011;49105;46.046;10.760;2024-02-14T13:05:13;2.40;;;2.30;;
63018;SDS011;49105;46.046;10.760;2024-02-14T13:07:39;3.17;;;2.97;;
63018;SDS011;49105;46.046;10.760;2024-02-14T13:10:05;1.80;;;1.80;;
63018;SDS011;49105;46.046;10.760;2024-02-14T13:12:31;1.80;;;1.80;;
63018;SDS011;49105;46.046;10.760;2024-02-14T13:14:58;1.80;;;1.80;;
63018;SDS011;49105;46.046;10.760;2024-02-14T13:17:25;2.05;;;2.05;;
63018;SDS011;49105;46.046;10.760;2024-02-14T13:19:51;1.63;;;1.63;;
63018;SDS011;49105;46.046;10.760;2024-02-14T13:22:18;1.95;;;1.83;;
63018;SDS011;49105;46.046;10.760;2024-02-14T13:24:44;2.10;;;2.10;;
63018;SDS011;49105;46.046;10.760;2024-02-14T13:27:10;2.05;;;2.05;;
63018;SDS011;49105;46.046;10.760;2024-02-14T13:29:36;1.90;;;1.90;;
63018;SDS011;49105;46.046;10.760;2024-02-14T13:32:03;1.80;;;1.80;;
63018;SDS011;49105;46.046;10.760;2024-02-14T13:34:30;2.00;;;2.00;;
63018;SDS011;49105;46.046;10.760;2024-02-14T13:36:56;2.10;;;2.10;;
63018;SDS011;49105;46.046;10.760;2024-02-14T13:39:23;1.80;;;1.80;;
63018;SDS011;49105;46.046;10.760;2024-02-14T13:41:48;1.90;;;1.90;;
63018;SDS011;49105;46.046;10.760;2024-02-14T13:44:14;1.88;;;1.88;;
63018;SDS011;49105;46.046;10.760;2024-02-14T13:46:43;1.75;;;1.75;;
63018;SDS011;49105;46.046;10.760;2024-02-14T13:49:10;1.60;;;1.60;;
63018;SDS011;49105;46.046;10.760;2024-02-14T13:51:36;1.60;;;1.60;;
63018;SDS011;49105;46.046;10.760;2024-02-14T13:54:03;1.60;;;1.60;;
63018;SDS011;49105;46.046;10.760;2024-02-14T13:56:28;2.13;;;2.13;;
63018;SDS011;49105;46.046;10.760;2024-02-14T13:58:54;1.48;;;1.48;;
63018;SDS011;49105;46.046;10.760;2024-02-14T14:01:20;1.70;;;1.70;;
63018;SDS011;49105;46.046;10.760;2024-02-14T14:03:46;1.75;;;1.75;;
63018;SDS011;49105;46.046;10.760;2024-02-14T14:06:13;1.50;;;1.50;;
63018;SDS011;49105;46.046;10.760;2024-02-14T14:08:39;1.60;;;1.60;;
63018;SDS011;49105;46.046;10.760;2024-02-14T14:11:05;2.10;;;2.10;;
63018;SDS011;49105;46.046;10.760;2024-02-14T14:13:33;1.80;;;1.80;;
63018;SDS011;49105;46.046;10.760;2024-02-14T14:16:02;1.65;;;1.65;;
63018;SDS011;49105;46.046;10.760;2024-02-14T14:18:30;1.88;;;1.88;;
63018;SDS011;49105;46.046;10.760;2024-02-14T14:20:56;1.60;;;1.60;;
63018;SDS011;49105;46.046;10.760;2024-02-14T14:23:23;1.52;;;1.52;;
63018;SDS011;49105;46.046;10.760;2024-02-14T14:25:49;1.80;;;1.80;;
63018;SDS011;49105;46.046;10.760;2024-02-14T14:28:14;1.63;;;1.63;;
63018;SDS011;49105;46.046;10.760;2024-02-14T14:30:42;1.60;;;1.60;;